TimeCST,TemperatureF,Dew PointF,Humidity,Sea Level PressureIn,VisibilityMPH,Wind Direction,Wind SpeedMPH,Gust SpeedMPH,PrecipitationIn,Events,Conditions,WindDirDegrees,DateUTC
12:53 AM,50.0,45.0,83,30.14,10.0,SW,5.8,-,N/A,,Clear,220,2012-11-20 06:53:00
1:53 AM,48.2,44.6,87,30.15,10.0,SW,4.6,-,N/A,,Clear,230,2012-11-20 07:53:00
2:53 AM,46.0,42.1,86,30.15,10.0,SW,5.8,-,N/A,,Clear,220,2012-11-20 08:53:00
3:53 AM,46.9,43.0,86,30.14,10.0,SSW,8.1,-,N/A,,Clear,210,2012-11-20 09:53:00
4:53 AM,48.9,44.1,83,30.15,10.0,SW,8.1,-,N/A,,Clear,220,2012-11-20 10:53:00
5:53 AM,46.4,42.8,87,30.17,9.0,SW,4.6,-,N/A,,Clear,230,2012-11-20 11:53:00
6:53 AM,46.0,43.0,89,30.18,8.0,SW,5.8,-,N/A,,Clear,230,2012-11-20 12:53:00
7:53 AM,46.9,44.1,90,30.20,6.0,SSW,5.8,-,N/A,,Clear,210,2012-11-20 13:53:00
8:53 AM,51.1,46.0,83,30.22,6.0,West,4.6,-,N/A,,Clear,280,2012-11-20 14:53:00
9:53 AM,54.0,48.0,80,30.22,7.0,WNW,5.8,-,N/A,,Clear,300,2012-11-20 15:53:00
10:53 AM,57.0,46.0,67,30.22,10.0,NNW,5.8,-,N/A,,Clear,330,2012-11-20 16:53:00
11:53 AM,61.0,45.0,56,30.20,10.0,NW,6.9,-,N/A,,Clear,320,2012-11-20 17:53:00
12:53 PM,62.1,45.0,53,30.18,10.0,NW,6.9,-,N/A,,Clear,310,2012-11-20 18:53:00
1:53 PM,64.0,42.1,45,30.17,10.0,NNW,8.1,-,N/A,,Clear,330,2012-11-20 19:53:00
2:53 PM,64.9,41.0,42,30.16,10.0,WNW,8.1,-,N/A,,Clear,290,2012-11-20 20:53:00
3:53 PM,64.0,42.1,45,30.17,10.0,NNW,5.8,-,N/A,,Clear,330,2012-11-20 21:53:00
4:53 PM,60.1,42.1,51,30.18,10.0,NNW,5.8,-,N/A,,Clear,330,2012-11-20 22:53:00
5:53 PM,54.0,43.0,66,30.19,10.0,Calm,Calm,-,N/A,,Clear,0,2012-11-20 23:53:00
6:53 PM,50.0,42.1,74,30.21,10.0,Calm,Calm,-,N/A,,Clear,0,2012-11-21 00:53:00
7:53 PM,46.9,41.0,80,30.22,10.0,Calm,Calm,-,N/A,,Clear,0,2012-11-21 01:53:00
8:53 PM,44.1,39.9,85,30.23,9.0,Calm,Calm,-,N/A,,Clear,0,2012-11-21 02:53:00
9:53 PM,43.0,39.9,89,30.25,8.0,Calm,Calm,-,N/A,,Clear,0,2012-11-21 03:53:00
10:53 PM,43.0,41.0,93,30.23,5.0,Calm,Calm,-,N/A,,Clear,0,2012-11-21 04:53:00
11:53 PM,39.9,39.0,97,30.23,5.0,Calm,Calm,-,N/A,,Clear,0,2012-11-21 05:53:00